Main page
METAR-TAF:

METAR-TAF

Airports :

Sønderborg Airport

Sønderborg, Denmark

latitude: 54-58N, longitude: 009-47E, elevation: 7 m

Current weather observation

The report was made 36 minutes ago, at 04:20 UTC
Wind 6 kt from the West, varying between Southwest and West/Northwest
Temperature 10°C
Humidity 87%
Pressure 1022 hPa
Visibility 10 km or more
no clouds below 1500 m and no cumulonimbus

METAR: EKSB 200420Z 26006KT 230V300 CAVOK 10/08 Q1022

Time: 06:56 (04:56 UTC)

Forecast

The report was made 14 hours and 3 minutes ago, at 14:53 UTC
Forecast valid from 19 at 15 UTC to 19 at 22 UTC
Wind 13 kt from the West/Northwest
Visibility 10 km or more
Scattered clouds at a height of 3000 ft

TAF: EKSB 191453Z 1915/1922 29013KT 9999 SCT030

Weather observations and forecasts of more than 4000 airports (METAR and TAF reports).

The available stations are represented by yellow and red dots on the map.

Hover mouse over dot to see the name of the station.

Then click to see weather observations and forecasts.

To change the map : click on the green buttons with a black cross to zoom in, on the green button with a dash to zoom out, or on the green arrows for adjacent maps.


METAR-TAF: